Time;durP1;ratioP1;P1;durP2;ratioP2;P2;SDS_P1;SDS_P2;PMS_P1;PMS_P2;Temp;Humidity;BMP_temperature;BMP_pressure;BME280_temperature;BME280_humidity;BME280_pressure;Samples;Min_cycle;Max_cycle;Signal;HPM_P1;HPM_P2
2022/07/16 00:03:32;;;;;;;;;;;;;;;19.91;60.30;99950.59;4360171;32;20018;-91
2022/07/16 00:05:58;;;;;;;;;;;;;;;19.98;60.29;99947.53;4348744;33;19992;-89
2022/07/16 00:08:23;;;;;;;;;;;;;;;20.00;60.29;99948.25;4361382;32;20001;-90
2022/07/16 00:10:48;;;;;;;;;;;;;;;20.01;60.30;99944.69;4350991;33;19990;-94
2022/07/16 00:13:13;;;;;;;;;;;;;;;20.00;60.30;99946.47;4349318;33;19988;-92
2022/07/16 00:15:39;;;;;;;;;;;;;;;20.01;60.30;99947.31;4374748;32;19983;-92
2022/07/16 00:20:48;;;;;;;;;;;;;;;20.05;60.30;99927.66;4369788;32;19963;-92
2022/07/16 00:23:13;;;;;;;;;;;;;;;19.96;60.30;99936.22;4355952;33;19991;-93
2022/07/16 00:25:39;;;;;;;;;;;;;;;19.80;60.28;99939.87;4349034;33;19986;-91
2022/07/16 00:28:04;;;;;;;;;;;;;;;19.83;60.28;99941.47;4349068;33;19986;-93
2022/07/16 00:30:29;;;;;;;;;;;;;;;19.81;60.28;99936.28;4349053;33;20261;-92
2022/07/16 00:32:54;;;;;;;;;;;;;;;19.80;60.29;99941.69;4349185;33;20003;-92
2022/07/16 00:35:26;;;;;;;;;;;;;;;19.86;60.30;99944.75;4348939;33;20413;-93
2022/07/16 00:37:51;;;;;;;;;;;;;;;19.90;60.29;99940.97;4361186;32;19979;-92
2022/07/16 00:40:16;;;;;;;;;;;;;;;19.80;60.29;99947.81;4362127;32;20297;-92
2022/07/16 00:42:42;;;;;;;;;;;;;;;19.77;60.29;99948.00;4349081;33;19995;-92
2022/07/16 00:45:07;;;;;;;;;;;;;;;19.63;60.28;99948.06;4349548;32;20027;-94
2022/07/16 00:47:34;;;;;;;;;;;;;;;19.68;60.27;99939.87;4362274;32;20588;-94
2022/07/16 00:50:00;;;;;;;;;;;;;;;19.86;60.30;99946.53;4362591;32;20371;-94
2022/07/16 00:52:25;;;;;;;;;;;;;;;19.78;60.29;99947.06;4349943;33;19999;-95
2022/07/16 00:54:51;;;;;;;;;;;;;;;19.86;60.30;99950.03;4349644;33;20029;-92
2022/07/16 00:57:17;;;;;;;;;;;;;;;19.77;60.29;99953.28;4361812;32;20226;-93
2022/07/16 00:59:42;;;;;;;;;;;;;;;19.62;60.28;99949.88;4349099;33;20653;-93
2022/07/16 01:02:07;;;;;;;;;;;;;;;19.64;60.28;99939.22;4361687;32;19983;-93
2022/07/16 01:04:33;;;;;;;;;;;;;;;19.65;60.28;99954.13;4349316;33;20018;-91
2022/07/16 01:06:58;;;;;;;;;;;;;;;19.31;60.27;99958.94;4349038;33;20534;-92
2022/07/16 01:09:24;;;;;;;;;;;;;;;19.37;60.26;99951.53;4361295;32;19983;-91
2022/07/16 01:12:09;;;;;;;;;;;;;;;19.65;60.28;99956.78;4349010;33;20014;-92
2022/07/16 01:14:34;;;;;;;;;;;;;;;19.67;60.28;99946.09;4336866;33;19998;-92
2022/07/16 01:17:00;;;;;;;;;;;;;;;19.70;60.28;99949.38;4349641;33;19991;-93
2022/07/16 01:19:25;;;;;;;;;;;;;;;19.65;60.28;99945.34;4349574;33;20296;-92
2022/07/16 01:21:50;;;;;;;;;;;;;;;19.60;60.27;99948.28;4349908;33;20019;-92
2022/07/16 01:24:15;;;;;;;;;;;;;;;19.62;60.28;99951.66;4362689;32;19990;-92
2022/07/16 01:26:41;;;;;;;;;;;;;;;19.53;60.28;99952.25;4351301;33;20041;-92
2022/07/16 01:29:06;;;;;;;;;;;;;;;19.65;60.28;99946.22;4358944;32;19976;-91
2022/07/16 01:31:31;;;;;;;;;;;;;;;19.61;60.28;99945.53;4358210;33;19991;-93
2022/07/16 01:36:41;;;;;;;;;;;;;;;19.89;60.29;99952.50;4359580;32;20905;-92
2022/07/16 01:39:06;;;;;;;;;;;;;;;19.87;60.29;99951.75;4348544;33;19992;-92
2022/07/16 01:41:31;;;;;;;;;;;;;;;20.00;60.29;99953.56;4373556;32;20009;-93
2022/07/16 01:43:57;;;;;;;;;;;;;;;19.75;60.28;99952.56;4361177;32;20026;-93
2022/07/16 01:46:22;;;;;;;;;;;;;;;19.73;60.28;99949.16;4360767;32;19975;-94
2022/07/16 01:48:47;;;;;;;;;;;;;;;19.90;60.29;99950.69;4348570;33;19987;-93
2022/07/16 01:51:12;;;;;;;;;;;;;;;19.47;60.27;99952.66;4348561;33;20010;-93
2022/07/16 01:53:38;;;;;;;;;;;;;;;19.31;60.26;99960.72;4360927;32;20316;-93
2022/07/16 01:56:03;;;;;;;;;;;;;;;19.23;60.26;99958.59;4348734;33;20280;-93
2022/07/16 01:58:28;;;;;;;;;;;;;;;19.34;60.26;99965.78;4348544;33;19995;-93
2022/07/16 02:00:54;;;;;;;;;;;;;;;19.33;60.27;99967.59;4348878;33;20279;-93
2022/07/16 02:03:19;;;;;;;;;;;;;;;19.23;60.26;99968.28;4349043;33;19984;-93
2022/07/16 02:05:44;;;;;;;;;;;;;;;19.39;60.27;99954.94;4348962;33;20288;-93
2022/07/16 02:08:10;;;;;;;;;;;;;;;19.12;60.25;99955.78;4361484;32;19991;-94
2022/07/16 02:10:35;;;;;;;;;;;;;;;19.07;60.25;99960.50;4349058;33;20000;-93
2022/07/16 02:13:13;;;;;;;;;;;;;;;18.95;60.25;99962.13;4348968;33;20053;-94
2022/07/16 02:15:50;;;;;;;;;;;;;;;19.11;60.25;99958.50;4356069;32;19964;-93
2022/07/16 02:18:16;;;;;;;;;;;;;;;18.96;60.25;99962.97;4361056;32;19975;-92
2022/07/16 02:20:41;;;;;;;;;;;;;;;18.89;60.24;99959.88;4348139;33;19991;-92
2022/07/16 02:23:06;;;;;;;;;;;;;;;18.85;60.23;99955.72;4373113;32;20329;-90
2022/07/16 02:25:31;;;;;;;;;;;;;;;18.65;60.22;99961.41;4347404;33;20006;-92
2022/07/16 02:28:06;;;;;;;;;;;;;;;18.48;60.22;99965.06;4359767;32;20103;-91
2022/07/16 02:30:31;;;;;;;;;;;;;;;18.48;60.22;99969.47;4359321;32;20010;-91
2022/07/16 02:32:57;;;;;;;;;;;;;;;18.36;60.21;99969.28;4347477;33;20280;-91
2022/07/16 02:35:22;;;;;;;;;;;;;;;18.29;60.21;99969.75;4372177;32;19971;-91
2022/07/16 02:37:47;;;;;;;;;;;;;;;18.26;60.20;99967.31;4361179;32;20010;-90
2022/07/16 02:40:13;;;;;;;;;;;;;;;18.10;60.20;99962.09;4349287;33;19983;-90
2022/07/16 02:42:39;;;;;;;;;;;;;;;18.12;60.20;99952.31;4349357;33;20034;-91
2022/07/16 02:45:04;;;;;;;;;;;;;;;18.10;60.20;99967.34;4349305;32;19999;-91
2022/07/16 02:47:29;;;;;;;;;;;;;;;18.05;60.21;99975.53;4349083;33;19983;-91
2022/07/16 02:49:55;;;;;;;;;;;;;;;18.09;60.19;99968.28;4361956;32;20103;-91
2022/07/16 02:52:20;;;;;;;;;;;;;;;17.95;60.19;99971.72;4349721;33;20356;-91
2022/07/16 02:54:45;;;;;;;;;;;;;;;17.78;60.18;99979.78;4361859;32;19992;-90
2022/07/16 02:57:10;;;;;;;;;;;;;;;17.72;60.17;99978.34;4362028;32;20403;-89
2022/07/16 02:59:36;;;;;;;;;;;;;;;17.70;60.18;99974.09;4350717;33;19979;-88
2022/07/16 03:02:01;;;;;;;;;;;;;;;17.75;60.17;99979.97;4349970;33;20004;-89
2022/07/16 03:04:26;;;;;;;;;;;;;;;17.67;60.17;99987.41;4362905;32;20325;-89
2022/07/16 03:06:51;;;;;;;;;;;;;;;17.74;60.18;99981.75;4352649;33;20006;-90
2022/07/16 03:09:17;;;;;;;;;;;;;;;17.57;60.17;99981.84;4361770;32;19998;-89
2022/07/16 03:11:42;;;;;;;;;;;;;;;17.72;60.17;99978.34;4354717;32;20019;-89
2022/07/16 03:14:07;;;;;;;;;;;;;;;17.68;60.17;99991.78;4349128;33;21516;-89
2022/07/16 03:16:32;;;;;;;;;;;;;;;17.72;60.17;99993.28;4361417;32;20250;-89
2022/07/16 03:18:58;;;;;;;;;;;;;;;17.25;60.15;99991.53;4349175;33;20003;-92
2022/07/16 03:21:23;;;;;;;;;;;;;;;17.58;60.16;99993.22;4349048;33;19980;-91
2022/07/16 03:23:48;;;;;;;;;;;;;;;17.64;60.17;99995.50;4348999;33;19991;-92
2022/07/16 03:26:13;;;;;;;;;;;;;;;17.64;60.17;99991.06;4348874;33;20000;-89
2022/07/16 03:28:39;;;;;;;;;;;;;;;17.65;60.17;99990.12;4348838;33;20276;-90
2022/07/16 03:31:04;;;;;;;;;;;;;;;17.90;60.18;99999.28;4349292;33;19980;-92
2022/07/16 03:33:29;;;;;;;;;;;;;;;17.90;60.18;99996.66;4349324;33;20252;-92
2022/07/16 03:35:54;;;;;;;;;;;;;;;17.84;60.18;99994.37;4348900;33;20360;-91
2022/07/16 03:41:04;;;;;;;;;;;;;;;17.74;60.17;100001.94;4359562;32;20287;-89
2022/07/16 03:43:29;;;;;;;;;;;;;;;17.80;60.18;100004.25;4361013;32;19991;-89
2022/07/16 03:45:54;;;;;;;;;;;;;;;17.85;60.19;100003.97;4349822;33;20027;-89
2022/07/16 03:48:20;;;;;;;;;;;;;;;17.64;60.17;100000.75;4359870;32;19996;-89
2022/07/16 03:50:45;;;;;;;;;;;;;;;17.68;60.18;100003.16;4348278;33;20010;-91
2022/07/16 03:53:10;;;;;;;;;;;;;;;17.71;60.18;100002.97;4361411;32;19995;-91
2022/07/16 03:55:35;;;;;;;;;;;;;;;17.74;60.17;100008.09;4348315;33;19988;-90
2022/07/16 03:58:01;;;;;;;;;;;;;;;17.47;60.16;100007.81;4361268;32;20031;-90
2022/07/16 04:00:26;;;;;;;;;;;;;;;17.79;60.17;100010.44;4361326;32;20247;-90
2022/07/16 04:02:51;;;;;;;;;;;;;;;17.85;60.18;100003.97;4348770;33;20015;-89
2022/07/16 04:05:16;;;;;;;;;;;;;;;17.67;60.17;100011.09;4361588;32;19995;-91
2022/07/16 04:07:41;;;;;;;;;;;;;;;17.81;60.18;100011.22;4349860;33;19999;-92
2022/07/16 04:10:07;;;;;;;;;;;;;;;17.97;60.18;100004.09;4349626;33;19990;-93
2022/07/16 04:12:32;;;;;;;;;;;;;;;17.90;60.17;100002.75;4350225;33;20014;-89
2022/07/16 04:15:01;;;;;;;;;;;;;;;18.16;60.20;100000.37;4353868;33;20351;-90
2022/07/16 04:17:26;;;;;;;;;;;;;;;18.27;60.20;100003.25;4348739;33;20296;-91
2022/07/16 04:19:52;;;;;;;;;;;;;;;18.35;60.20;100009.75;4360710;32;20006;-88
2022/07/16 04:22:17;;;;;;;;;;;;;;;18.37;60.21;100013.13;4360603;32;19971;-91
2022/07/16 04:24:42;;;;;;;;;;;;;;;18.31;60.22;100012.66;4348402;33;19991;-92
2022/07/16 04:27:07;;;;;;;;;;;;;;;18.46;60.22;100006.47;4348561;33;20011;-92
2022/07/16 04:29:33;;;;;;;;;;;;;;;18.75;60.22;100001.25;4361423;32;20313;-92
2022/07/16 04:31:58;;;;;;;;;;;;;;;18.73;60.22;99998.72;4348309;33;19997;-89
2022/07/16 04:34:23;;;;;;;;;;;;;;;18.83;60.23;99998.97;4348336;33;20066;-91
2022/07/16 04:36:48;;;;;;;;;;;;;;;18.89;60.23;100007.34;4348471;33;20014;-90
2022/07/16 04:39:14;;;;;;;;;;;;;;;18.93;60.24;100008.03;4349597;33;19997;-92
2022/07/16 04:41:39;;;;;;;;;;;;;;;19.14;60.26;100001.38;4349652;33;19983;-91
2022/07/16 04:44:04;;;;;;;;;;;;;;;19.09;60.25;99998.19;4363185;32;19998;-92
2022/07/16 04:46:29;;;;;;;;;;;;;;;19.27;60.25;99993.53;4364510;32;20010;-91
2022/07/16 04:48:55;;;;;;;;;;;;;;;19.31;60.26;99995.88;4362072;33;19959;-92
2022/07/16 04:51:20;;;;;;;;;;;;;;;19.32;60.26;99996.72;4355235;33;19991;-90
2022/07/16 04:53:45;;;;;;;;;;;;;;;19.45;60.25;99995.00;4361554;32;19979;-91
2022/07/16 04:56:10;;;;;;;;;;;;;;;19.52;60.27;99998.94;4348727;33;20378;-92
2022/07/16 04:58:36;;;;;;;;;;;;;;;19.59;60.27;99992.31;4348508;33;20300;-91
2022/07/16 05:01:01;;;;;;;;;;;;;;;19.79;60.29;99996.31;4347852;33;20014;-91
2022/07/16 05:03:27;;;;;;;;;;;;;;;19.98;60.29;99992.44;4348329;33;19991;-92
2022/07/16 05:05:52;;;;;;;;;;;;;;;20.07;60.29;99994.47;4348351;33;20000;-91
2022/07/16 05:08:18;;;;;;;;;;;;;;;20.20;60.30;99995.34;4348419;33;19991;-91
2022/07/16 05:10:43;;;;;;;;;;;;;;;20.13;60.30;99994.06;4347797;33;20010;-88
2022/07/16 05:13:10;;;;;;;;;;;;;;;20.27;60.31;100001.03;4348515;33;20010;-93
2022/07/16 05:15:35;;;;;;;;;;;;;;;20.27;60.31;100001.88;4347777;33;20013;-90
2022/07/16 05:18:00;;;;;;;;;;;;;;;20.32;60.31;100002.41;4360481;32;19979;-91
2022/07/16 05:20:26;;;;;;;;;;;;;;;20.37;60.31;100007.41;4360407;32;19979;-90
2022/07/16 05:22:51;;;;;;;;;;;;;;;20.47;60.32;99995.28;4360836;32;20036;-92
2022/07/16 05:25:16;;;;;;;;;;;;;;;20.65;60.32;100001.94;4348457;33;19995;-91
2022/07/16 05:27:41;;;;;;;;;;;;;;;20.51;60.31;99999.41;4348159;33;20055;-91
2022/07/16 05:30:07;;;;;;;;;;;;;;;20.70;60.33;99997.16;4360754;32;20096;-91
2022/07/16 05:32:32;;;;;;;;;;;;;;;20.89;60.34;99998.53;4348123;32;19998;-91
2022/07/16 05:34:58;;;;;;;;;;;;;;;20.72;60.33;99994.41;4348203;33;19991;-91
2022/07/16 05:37:23;;;;;;;;;;;;;;;20.89;60.34;100003.81;4348575;33;20003;-92
2022/07/16 05:39:48;;;;;;;;;;;;;;;21.08;60.34;99994.47;4348502;33;19987;-92
2022/07/16 05:42:13;;;;;;;;;;;;;;;21.16;60.36;100001.84;4373208;32;19983;-92
2022/07/16 05:44:39;;;;;;;;;;;;;;;21.18;60.35;100009.69;4348262;33;20000;-92
2022/07/16 05:47:04;;;;;;;;;;;;;;;21.18;60.36;100007.88;4348111;33;19983;-91
2022/07/16 05:49:29;;;;;;;;;;;;;;;21.44;60.37;99996.28;4347956;33;19999;-91
2022/07/16 05:51:54;;;;;;;;;;;;;;;21.35;60.36;99998.75;4348168;33;20028;-91
2022/07/16 05:54:20;;;;;;;;;;;;;;;21.53;60.37;100007.16;4348351;33;20003;-92
2022/07/16 05:56:45;;;;;;;;;;;;;;;21.29;60.35;100002.69;4348094;33;20329;-90
2022/07/16 05:59:10;;;;;;;;;;;;;;;21.33;60.37;100008.62;4360598;32;19994;-92
2022/07/16 06:01:35;;;;;;;;;;;;;;;21.33;60.37;100005.97;4348355;33;20030;-92
2022/07/16 06:04:01;;;;;;;;;;;;;;;21.45;60.37;99999.78;4361155;32;20132;-92
2022/07/16 06:06:26;;;;;;;;;;;;;;;21.54;60.36;100007.06;4348297;33;20312;-92
2022/07/16 06:08:51;;;;;;;;;;;;;;;21.73;60.38;100007.38;4348538;33;20006;-92
2022/07/16 06:11:16;;;;;;;;;;;;;;;21.94;60.40;100004.09;4347332;33;19991;-92
2022/07/16 06:13:42;;;;;;;;;;;;;;;22.06;60.40;100000.56;4350042;33;20031;-93
2022/07/16 06:16:07;;;;;;;;;;;;;;;22.20;60.40;100008.28;4360620;32;19983;-93
2022/07/16 06:18:33;;;;;;;;;;;;;;;22.15;60.40;100012.25;4349261;33;20044;-92
2022/07/16 06:20:58;;;;;;;;;;;;;;;22.14;60.40;100014.06;4348772;33;20260;-92
2022/07/16 06:23:23;;;;;;;;;;;;;;;22.04;60.40;100011.28;4349949;33;20042;-92
2022/07/16 06:25:48;;;;;;;;;;;;;;;22.23;60.40;100010.72;4353748;32;20002;-91
2022/07/16 06:28:16;;;;;;;;;;;;;;;22.33;60.42;100017.03;4385995;32;19990;-91
2022/07/16 06:30:41;;;;;;;;;;;;;;;22.43;60.42;100013.66;4352380;33;19964;-92
2022/07/16 06:33:06;;;;;;;;;;;;;;;22.72;60.44;100016.72;4347834;33;20019;-91
2022/07/16 06:35:32;;;;;;;;;;;;;;;22.70;60.43;100019.47;4347360;33;19980;-91
2022/07/16 06:37:57;;;;;;;;;;;;;;;22.93;60.45;100020.34;4347248;33;19994;-92
2022/07/16 06:40:22;;;;;;;;;;;;;;;23.17;60.45;100013.09;4347206;33;19999;-91
2022/07/16 06:42:48;;;;;;;;;;;;;;;23.18;60.46;100014.78;4360079;32;20031;-91
2022/07/16 06:45:13;;;;;;;;;;;;;;;23.18;60.46;100019.25;4346887;33;20234;-91
2022/07/16 06:47:39;;;;;;;;;;;;;;;23.42;60.47;100013.75;4347049;33;19987;-90
2022/07/16 06:50:04;;;;;;;;;;;;;;;23.81;60.49;100020.34;4359633;32;20022;-90
2022/07/16 06:52:29;;;;;;;;;;;;;;;24.11;60.51;100009.78;4347199;33;20336;-91
2022/07/16 06:54:55;;;;;;;;;;;;;;;24.08;60.51;100012.72;4346907;33;20003;-91
2022/07/16 06:57:21;;;;;;;;;;;;;;;24.45;60.53;100007.81;4346740;33;19995;-92
2022/07/16 06:59:46;;;;;;;;;;;;;;;24.61;60.53;100007.34;4346850;33;20494;-91
2022/07/16 07:02:13;;;;;;;;;;;;;;;24.64;60.54;100007.09;4359133;32;20023;-91
2022/07/16 07:04:38;;;;;;;;;;;;;;;24.85;60.55;100003.53;4359078;32;19989;-91
2022/07/16 07:07:04;;;;;;;;;;;;;;;24.97;60.55;100002.44;4359198;32;19979;-90
2022/07/16 07:09:29;;;;;;;;;;;;;;;25.08;60.56;99999.75;4348124;33;20015;-91
2022/07/16 07:11:54;;;;;;;;;;;;;;;25.16;60.56;100002.56;4348014;33;20027;-91
2022/07/16 07:14:20;;;;;;;;;;;;;;;25.50;60.57;99997.69;4359031;32;20257;-91
2022/07/16 07:16:45;;;;;;;;;;;;;;;25.81;60.59;100001.16;4359305;32;19983;-91
2022/07/16 07:19:10;;;;;;;;;;;;;;;26.06;60.60;100002.41;4347748;33;19995;-90
2022/07/16 07:21:35;;;;;;;;;;;;;;;26.05;60.61;99994.53;4347749;33;20339;-88
2022/07/16 07:24:01;;;;;;;;;;;;;;;26.15;60.61;99998.03;4361158;32;19998;-90
2022/07/16 07:26:26;;;;;;;;;;;;;;;26.25;60.62;100004.16;4348865;33;20480;-90
2022/07/16 07:28:51;;;;;;;;;;;;;;;26.28;60.62;99994.06;4373474;32;20067;-90
2022/07/16 07:31:18;;;;;;;;;;;;;;;26.24;60.62;100003.31;4360965;32;20003;-89
2022/07/16 07:33:43;;;;;;;;;;;;;;;26.05;60.61;99998.03;4361155;32;19979;-90
2022/07/16 07:36:08;;;;;;;;;;;;;;;25.77;60.59;100002.38;4361090;32;19983;-90
2022/07/16 07:38:33;;;;;;;;;;;;;;;26.04;60.60;99998.19;4361047;32;19976;-90
2022/07/16 07:40:58;;;;;;;;;;;;;;;26.19;60.62;99996.75;4348543;33;19999;-90
2022/07/16 07:43:24;;;;;;;;;;;;;;;25.87;60.60;99997.91;4361207;32;19979;-90
2022/07/16 07:45:49;;;;;;;;;;;;;;;26.05;60.61;99992.72;4373430;32;20368;-89
2022/07/16 07:48:14;;;;;;;;;;;;;;;26.30;60.62;99999.28;4348852;33;19996;-90
2022/07/16 07:50:40;;;;;;;;;;;;;;;26.34;60.63;99997.16;4361352;32;20035;-89
2022/07/16 07:53:05;;;;;;;;;;;;;;;26.51;60.63;99991.94;4361420;32;19979;-90
2022/07/16 07:55:33;;;;;;;;;;;;;;;26.54;60.63;99980.97;4361664;32;19992;-90
2022/07/16 07:57:58;;;;;;;;;;;;;;;26.64;60.64;99990.75;4349004;33;19995;-90
2022/07/16 08:00:23;;;;;;;;;;;;;;;26.68;60.63;99981.47;4362593;32;19983;-89
2022/07/16 08:02:49;;;;;;;;;;;;;;;26.56;60.64;99984.34;4363717;32;20035;-89
2022/07/16 08:05:14;;;;;;;;;;;;;;;26.54;60.62;99991.66;4355560;33;19975;-89
2022/07/16 08:07:39;;;;;;;;;;;;;;;26.53;60.63;99984.63;4372484;32;20022;-89
2022/07/16 08:10:05;;;;;;;;;;;;;;;26.82;60.65;99981.84;4362705;32;20039;-90
2022/07/16 08:12:30;;;;;;;;;;;;;;;26.76;60.64;99981.59;4373347;32;19979;-89
2022/07/16 08:14:55;;;;;;;;;;;;;;;26.74;60.64;99979.06;4360854;32;20276;-89
2022/07/16 08:17:20;;;;;;;;;;;;;;;26.92;60.65;99974.62;4348352;33;20011;-89
2022/07/16 08:19:45;;;;;;;;;;;;;;;26.98;60.66;99965.19;4348438;33;20078;-89
2022/07/16 08:22:11;;;;;;;;;;;;;;;26.98;60.66;99961.69;4360988;32;19979;-89
2022/07/16 08:27:20;;;;;;;;;;;;;;;26.91;60.65;99966.75;4359026;32;19998;-89
2022/07/16 08:29:45;;;;;;;;;;;;;;;27.17;60.67;99965.09;4348429;33;20043;-89
2022/07/16 08:32:11;;;;;;;;;;;;;;;27.07;60.66;99966.16;4349475;33;20035;-89
2022/07/16 08:34:36;;;;;;;;;;;;;;;26.99;60.66;99974.03;4347501;33;20343;-89
2022/07/16 08:37:01;;;;;;;;;;;;;;;27.04;60.66;99969.13;4348234;33;20071;-89
2022/07/16 08:39:27;;;;;;;;;;;;;;;27.23;60.66;99961.00;4360701;32;20030;-89
2022/07/16 08:41:52;;;;;;;;;;;;;;;27.63;60.69;99963.25;4360784;32;19991;-90
2022/07/16 08:44:17;;;;;;;;;;;;;;;28.06;60.72;99954.41;4360624;32;19971;-90
2022/07/16 08:46:42;;;;;;;;;;;;;;;28.33;60.73;99950.78;4360078;32;20022;-89
2022/07/16 08:49:08;;;;;;;;;;;;;;;28.65;60.74;99957.31;4360941;32;20309;-89
2022/07/16 08:51:34;;;;;;;;;;;;;;;28.61;60.75;99953.25;4360729;32;19990;-90
2022/07/16 08:54:15;;;;;;;;;;;;;;;28.64;60.74;99959.16;4348186;33;19988;-90
2022/07/16 08:56:42;;;;;;;;;;;;;;;28.76;60.75;99949.00;4349499;33;19998;-90
2022/07/16 08:59:08;;;;;;;;;;;;;;;28.42;60.73;99957.03;4360525;32;20059;-90
2022/07/16 09:01:33;;;;;;;;;;;;;;;28.62;60.74;99960.28;4348293;33;20284;-91
2022/07/16 09:03:59;;;;;;;;;;;;;;;28.78;60.75;99955.03;4349620;33;19980;-92
2022/07/16 09:06:24;;;;;;;;;;;;;;;28.91;60.75;99952.78;4360870;32;20009;-92
2022/07/16 09:08:50;;;;;;;;;;;;;;;28.83;60.75;99952.69;4361524;32;19987;-91
2022/07/16 09:11:19;;;;;;;;;;;;;;;28.72;60.75;99942.28;4360767;32;19972;-92
2022/07/16 09:13:58;;;;;;;;;;;;;;;28.88;60.76;99944.22;4360845;32;19994;-91
2022/07/16 09:16:27;;;;;;;;;;;;;;;29.00;60.77;99943.75;4349447;33;20375;-90
2022/07/16 09:19:00;;;;;;;;;;;;;;;29.21;60.77;99946.00;4360762;32;20530;-90
2022/07/16 09:21:25;;;;;;;;;;;;;;;29.22;60.77;99946.84;4348063;33;19980;-90
2022/07/16 09:23:50;;;;;;;;;;;;;;;29.08;60.77;99939.41;4360769;32;19980;-90
2022/07/16 09:26:16;;;;;;;;;;;;;;;29.34;60.77;99943.69;4349428;33;19990;-90
2022/07/16 09:28:48;;;;;;;;;;;;;;;29.55;60.79;99939.69;4348291;33;20009;-90
2022/07/16 09:31:32;;;;;;;;;;;;;;;29.59;60.79;99941.91;4361127;32;19979;-90
2022/07/16 09:34:01;;;;;;;;;;;;;;;29.88;60.81;99937.88;4350526;33;20038;-91
2022/07/16 09:36:27;;;;;;;;;;;;;;;29.84;60.80;99926.66;4349689;33;20000;-91
2022/07/16 09:38:52;;;;;;;;;;;;;;;29.68;60.80;99947.25;4350354;33;20375;-91
2022/07/16 09:41:18;;;;;;;;;;;;;;;29.61;60.79;99937.22;4351436;33;20257;-90
2022/07/16 09:43:43;;;;;;;;;;;;;;;29.42;60.78;99934.81;4353355;33;20005;-91
2022/07/16 09:46:08;;;;;;;;;;;;;;;29.48;60.79;99934.16;4359622;32;19980;-91
2022/07/16 09:48:36;;;;;;;;;;;;;;;29.46;60.78;99938.03;4356543;33;20022;-92
2022/07/16 09:51:18;;;;;;;;;;;;;;;29.58;60.80;99934.03;4349059;33;19968;-92
2022/07/16 09:53:44;;;;;;;;;;;;;;;29.81;60.80;99937.72;4360474;32;20016;-91
2022/07/16 09:56:10;;;;;;;;;;;;;;;29.59;60.79;99933.84;4347597;33;19996;-91
2022/07/16 09:58:36;;;;;;;;;;;;;;;29.36;60.78;99940.00;4347815;33;20003;-91
2022/07/16 10:01:02;;;;;;;;;;;;;;;29.12;60.77;99932.75;4347671;33;19984;-92
2022/07/16 10:03:27;;;;;;;;;;;;;;;28.96;60.76;99922.81;4360167;32;20031;-91
2022/07/16 10:05:52;;;;;;;;;;;;;;;28.94;60.76;99925.66;4347541;33;20039;-91
2022/07/16 10:08:18;;;;;;;;;;;;;;;29.04;60.77;99920.13;4347714;33;20006;-92
2022/07/16 10:10:46;;;;;;;;;;;;;;;29.19;60.78;99923.88;4360022;32;19980;-91
2022/07/16 10:13:11;;;;;;;;;;;;;;;29.12;60.77;99920.19;4347548;33;20613;-91
2022/07/16 10:15:37;;;;;;;;;;;;;;;29.54;60.79;99909.34;4347482;33;19995;-91
2022/07/16 10:18:02;;;;;;;;;;;;;;;29.76;60.80;99912.38;4347606;33;20006;-91
2022/07/16 10:20:27;;;;;;;;;;;;;;;29.91;60.80;99906.16;4347580;33;20024;-91
2022/07/16 10:22:53;;;;;;;;;;;;;;;30.27;60.83;99895.03;4346945;33;19988;-91
2022/07/16 10:25:22;;;;;;;;;;;;;;;30.59;60.83;99887.91;4360050;32;20417;-91
2022/07/16 10:27:47;;;;;;;;;;;;;;;30.96;60.86;99879.16;4360436;32;20014;-91
2022/07/16 10:30:19;;;;;;;;;;;;;;;31.09;60.87;99882.94;4350934;33;19979;-91
2022/07/16 10:33:05;;;;;;;;;;;;;;;31.08;60.86;99883.97;4350069;33;20015;-90
2022/07/16 10:35:31;;;;;;;;;;;;;;;31.06;60.87;99879.78;4351012;33;19997;-90
2022/07/16 10:38:15;;;;;;;;;;;;;;;30.69;60.85;99873.25;4349215;33;20000;-91
2022/07/16 10:40:41;;;;;;;;;;;;;;;30.53;60.84;99874.16;4348897;33;20035;-90
2022/07/16 10:43:10;;;;;;;;;;;;;;;30.53;60.84;99873.31;4348719;33;19987;-90
2022/07/16 10:45:49;;;;;;;;;;;;;;;30.76;60.85;99866.19;4359535;32;19987;-91
2022/07/16 10:48:15;;;;;;;;;;;;;;;31.15;60.88;99858.03;4347076;33;20047;-91
2022/07/16 10:50:40;;;;;;;;;;;;;;;31.65;60.90;99853.09;4347094;33;19980;-91
2022/07/16 10:53:05;;;;;;;;;;;;;;;32.11;60.92;99847.63;4347154;33;20316;-90
2022/07/16 10:55:34;;;;;;;;;;;;;;;32.29;60.93;99851.66;4359679;32;20014;-90
2022/07/16 10:58:00;;;;;;;;;;;;;;;32.50;60.93;99847.38;4360867;32;20015;-90
2022/07/16 11:00:25;;;;;;;;;;;;;;;32.45;60.94;99853.31;4350871;33;19990;-91
2022/07/16 11:02:51;;;;;;;;;;;;;;;32.77;60.95;99840.44;4350170;33;19987;-90
2022/07/16 11:05:17;;;;;;;;;;;;;;;32.74;60.95;99836.25;4350008;33;20054;-90
2022/07/16 11:07:43;;;;;;;;;;;;;;;32.65;60.94;99835.53;4349710;33;20073;-91
2022/07/16 11:10:08;;;;;;;;;;;;;;;32.73;60.95;99831.06;4361980;32;20002;-90
2022/07/16 11:12:36;;;;;;;;;;;;;;;32.60;60.94;99821.78;4351523;33;20026;-90
2022/07/16 11:15:03;;;;;;;;;;;;;;;32.63;60.94;99829.47;4363161;32;19983;-90
2022/07/16 11:17:29;;;;;;;;;;;;;;;32.56;60.94;99836.66;4351309;33;20002;-89
2022/07/16 11:19:55;;;;;;;;;;;;;;;32.47;60.94;99835.09;4364103;32;19976;-90
2022/07/16 11:22:21;;;;;;;;;;;;;;;32.33;60.92;99835.94;4355016;33;19994;-90
2022/07/16 11:24:47;;;;;;;;;;;;;;;32.56;60.94;99833.13;4368336;32;19974;-90
2022/07/16 11:27:12;;;;;;;;;;;;;;;32.73;60.94;99831.88;4373598;32;19998;-90
2022/07/16 11:29:38;;;;;;;;;;;;;;;32.70;60.95;99828.75;4363397;32;20017;-90
2022/07/16 11:32:03;;;;;;;;;;;;;;;32.69;60.95;99830.59;4361251;32;19975;-90
2022/07/16 11:34:34;;;;;;;;;;;;;;;32.94;60.96;99834.66;4361325;32;19987;-91
2022/07/16 11:37:00;;;;;;;;;;;;;;;32.96;60.96;99839.84;4361305;32;19999;-90
2022/07/16 11:39:25;;;;;;;;;;;;;;;32.89;60.95;99838.94;4361205;32;19994;-90
2022/07/16 11:41:51;;;;;;;;;;;;;;;32.65;60.94;99840.94;4348825;33;19999;-90
2022/07/16 11:44:21;;;;;;;;;;;;;;;32.81;60.95;99839.88;4361215;32;19980;-91
2022/07/16 11:46:55;;;;;;;;;;;;;;;32.13;60.92;99837.50;4361170;32;20371;-91
2022/07/16 11:49:24;;;;;;;;;;;;;;;32.26;60.93;99827.78;4350313;33;19971;-89
2022/07/16 11:51:49;;;;;;;;;;;;;;;32.65;60.94;99829.28;4348562;33;20596;-90
2022/07/16 11:54:15;;;;;;;;;;;;;;;32.96;60.96;99829.06;4361016;32;19991;-91
2022/07/16 11:56:40;;;;;;;;;;;;;;;33.09;60.97;99825.66;4349904;33;20253;-91
2022/07/16 11:59:18;;;;;;;;;;;;;;;33.30;60.97;99822.09;4348575;33;20288;-91
2022/07/16 12:01:43;;;;;;;;;;;;;;;33.42;60.98;99826.84;4349802;33;19991;-89
2022/07/16 12:04:09;;;;;;;;;;;;;;;33.03;60.97;99827.25;4349831;33;19979;-90
2022/07/16 12:06:34;;;;;;;;;;;;;;;32.81;60.95;99830.97;4360549;32;19983;-90
2022/07/16 12:08:59;;;;;;;;;;;;;;;32.53;60.95;99825.44;4360011;32;20020;-90
2022/07/16 12:11:28;;;;;;;;;;;;;;;32.57;60.94;99822.16;4349884;33;20331;-90
2022/07/16 12:13:54;;;;;;;;;;;;;;;32.45;60.94;99822.84;4361574;32;20297;-90
2022/07/16 12:16:19;;;;;;;;;;;;;;;32.64;60.95;99823.06;4349170;33;20026;-91
2022/07/16 12:19:04;;;;;;;;;;;;;;;32.55;60.94;99818.00;4350249;33;19999;-90
2022/07/16 12:21:30;;;;;;;;;;;;;;;32.76;60.95;99817.19;4362477;32;19971;-90
2022/07/16 12:23:56;;;;;;;;;;;;;;;33.00;60.96;99816.03;4348458;33;20015;-90
2022/07/16 12:26:28;;;;;;;;;;;;;;;33.12;60.97;99807.22;4361123;32;19988;-90
2022/07/16 12:28:54;;;;;;;;;;;;;;;32.67;60.95;99817.31;4361156;32;19975;-89
2022/07/16 12:31:19;;;;;;;;;;;;;;;32.40;60.94;99819.88;4360924;32;20001;-90
2022/07/16 12:33:50;;;;;;;;;;;;;;;32.48;60.93;99812.53;4348820;33;20010;-90
2022/07/16 12:36:15;;;;;;;;;;;;;;;32.87;60.96;99814.00;4351335;33;20360;-89
2022/07/16 12:38:45;;;;;;;;;;;;;;;33.17;60.97;99802.09;4350709;33;20007;-91
2022/07/16 12:41:14;;;;;;;;;;;;;;;33.32;60.98;99798.50;4363716;32;19980;-90
2022/07/16 12:43:40;;;;;;;;;;;;;;;33.57;60.99;99788.94;4350024;33;19995;-90
2022/07/16 12:46:06;;;;;;;;;;;;;;;33.79;61.01;99790.53;4363696;32;19979;-90
2022/07/16 12:48:32;;;;;;;;;;;;;;;33.51;60.99;99787.03;4351983;33;19984;-90
2022/07/16 12:50:57;;;;;;;;;;;;;;;33.26;60.98;99792.00;4352128;33;19994;-90
2022/07/16 12:53:22;;;;;;;;;;;;;;;32.93;60.96;99808.72;4363887;32;20249;-89